createdAt,value
2019-06-26T00:02:25.668Z,11.27
2019-06-26T00:07:26.323Z,11.38
2019-06-26T00:12:27.229Z,12.04
2019-06-26T00:17:28.053Z,11.79
2019-06-26T00:22:28.625Z,11.60
2019-06-26T00:27:29.680Z,11.99
2019-06-26T00:32:29.169Z,13.32
2019-06-26T00:37:30.093Z,13.51
2019-06-26T00:42:30.840Z,12.97
2019-06-26T00:47:31.522Z,13.20
2019-06-26T00:52:32.235Z,12.73
2019-06-26T00:57:32.979Z,13.33
2019-06-26T01:02:33.735Z,13.12
2019-06-26T01:07:34.592Z,12.82
2019-06-26T01:12:35.144Z,13.40
2019-06-26T01:17:35.830Z,13.80
2019-06-26T01:22:36.449Z,14.00
2019-06-26T01:27:36.921Z,13.43
2019-06-26T01:32:37.638Z,13.85
2019-06-26T01:37:38.171Z,14.21
2019-06-26T01:42:38.887Z,14.50
2019-06-26T01:47:39.319Z,13.91
2019-06-26T01:52:40.014Z,13.46
2019-06-26T01:57:40.679Z,13.78
2019-06-26T02:02:41.829Z,14.54
2019-06-26T02:07:42.281Z,15.53
2019-06-26T02:12:42.676Z,15.04
2019-06-26T02:17:43.300Z,14.81
2019-06-26T02:22:42.879Z,15.20
2019-06-26T02:27:43.635Z,14.64
2019-06-26T02:32:44.401Z,15.01
2019-06-26T02:37:45.255Z,14.69
2019-06-26T02:42:45.931Z,14.80
2019-06-26T02:47:46.547Z,15.56
2019-06-26T02:52:47.245Z,14.72
2019-06-26T02:57:48.234Z,15.04
2019-06-26T03:02:48.940Z,16.16
2019-06-26T03:07:49.911Z,15.13
2019-06-26T03:12:50.594Z,14.89
2019-06-26T03:17:55.721Z,14.73
2019-06-26T03:22:51.586Z,15.65
2019-06-26T03:27:52.395Z,15.96
2019-06-26T03:32:55.892Z,17.70
2019-06-26T03:38:52.861Z,15.71
2019-06-26T03:43:53.969Z,17.92
2019-06-26T03:48:53.109Z,17.36
2019-06-26T03:53:53.033Z,17.38
2019-06-26T03:58:53.934Z,17.03
2019-06-26T04:03:57.372Z,18.01
2019-06-26T04:08:55.725Z,18.69
2019-06-26T04:13:55.473Z,18.90
2019-06-26T04:18:56.540Z,18.43
2019-06-26T04:23:56.330Z,18.04
2019-06-26T04:28:57.144Z,16.92
2019-06-26T04:33:58.246Z,18.17
2019-06-26T04:38:58.000Z,15.40
2019-06-26T04:43:59.464Z,14.78
2019-06-26T04:48:59.575Z,14.69
2019-06-26T04:53:59.365Z,14.81
2019-06-26T04:59:07.089Z,14.26
2019-06-26T05:04:02.037Z,14.76
2019-06-26T05:09:02.448Z,14.85
2019-06-26T05:14:02.280Z,14.14
2019-06-26T05:19:03.185Z,15.06
2019-06-26T05:24:04.165Z,14.99
2019-06-26T05:29:05.022Z,14.73
2019-06-26T05:34:06.202Z,14.79
2019-06-26T05:39:06.504Z,16.38
2019-06-26T05:44:06.803Z,15.80
2019-06-26T05:49:06.797Z,16.05
2019-06-26T05:54:07.620Z,16.38
2019-06-26T05:59:09.565Z,16.45
2019-06-26T06:04:10.836Z,15.55
2019-06-26T06:09:10.338Z,17.13
2019-06-26T06:14:10.388Z,17.03
2019-06-26T06:19:10.403Z,16.26
2019-06-26T06:24:10.353Z,17.85
2019-06-26T06:29:11.112Z,17.60
2019-06-26T06:34:11.865Z,15.44
2019-06-26T06:39:12.786Z,17.18
2019-06-26T06:44:13.710Z,17.78
2019-06-26T06:49:14.647Z,15.96
2019-06-26T06:54:15.674Z,14.25
2019-06-26T06:59:15.403Z,16.25
2019-06-26T07:04:27.108Z,14.95
2019-06-26T07:09:16.960Z,15.41
2019-06-26T07:14:18.413Z,14.42
2019-06-26T07:19:18.372Z,16.69
2019-06-26T07:24:19.545Z,17.90
2019-06-26T07:29:20.950Z,15.66
2019-06-26T07:34:26.739Z,15.88
2019-06-26T07:39:21.809Z,16.38
2019-06-26T07:44:20.844Z,15.43
2019-06-26T07:49:20.781Z,13.90
2019-06-26T07:54:23.761Z,14.25
2019-06-26T07:59:22.819Z,15.22
2019-06-26T08:04:22.747Z,13.79
2019-06-26T08:09:23.799Z,13.75
2019-06-26T08:14:24.687Z,14.56
2019-06-26T08:19:24.520Z,14.71
2019-06-26T08:24:25.431Z,13.49
2019-06-26T08:29:26.411Z,12.25
2019-06-26T08:34:27.205Z,11.63
2019-06-26T08:39:39.779Z,11.03
2019-06-26T08:44:28.738Z,11.40
2019-06-26T08:49:29.948Z,10.72
2019-06-26T08:54:29.927Z,9.58
2019-06-26T08:59:30.899Z,9.47
2019-06-26T09:04:31.761Z,9.53
2019-06-26T09:09:38.283Z,19.11
2019-06-26T09:14:33.142Z,9.32
2019-06-26T09:19:33.992Z,8.65
2019-06-26T09:24:35.077Z,9.29
2019-06-26T09:29:35.115Z,9.37
2019-06-26T09:34:35.012Z,9.36
2019-06-26T09:39:35.884Z,23.11
2019-06-26T09:44:36.773Z,8.58
2019-06-26T09:49:37.777Z,7.83
2019-06-26T09:54:37.421Z,9.19
2019-06-26T09:59:38.330Z,7.47
2019-06-26T10:04:39.384Z,17.16
2019-06-26T10:09:39.442Z,8.41
2019-06-26T10:14:47.442Z,7.40
2019-06-26T10:19:40.143Z,6.48
2019-06-26T10:24:40.158Z,7.65
2019-06-26T10:29:40.905Z,7.19
2019-06-26T10:34:40.890Z,6.12
2019-06-26T10:39:41.008Z,7.25
2019-06-26T10:44:41.306Z,7.14
2019-06-26T10:49:42.467Z,7.52
2019-06-26T10:54:44.350Z,7.50
2019-06-26T10:59:41.642Z,8.14
2019-06-26T11:04:42.430Z,6.83
2019-06-26T11:09:43.157Z,7.88
2019-06-26T11:14:44.412Z,6.72
2019-06-26T11:19:44.691Z,7.93
2019-06-26T11:24:46.567Z,6.99
2019-06-26T11:29:45.247Z,5.76
2019-06-26T11:34:46.161Z,7.29
2019-06-26T11:39:47.253Z,8.97
2019-06-26T11:44:47.209Z,6.32
2019-06-26T11:49:59.297Z,6.77
2019-06-26T11:55:02.097Z,7.17
2019-06-26T11:59:50.206Z,9.47
2019-06-26T12:04:50.063Z,7.08
2019-06-26T12:09:51.960Z,7.15
2019-06-26T12:14:55.434Z,8.04
2019-06-26T12:19:53.628Z,9.41
2019-06-26T12:24:55.423Z,6.11
2019-06-26T12:29:53.069Z,8.51
2019-06-26T12:34:55.458Z,7.89
2019-06-26T12:39:55.450Z,9.49
2019-06-26T12:44:56.633Z,6.87
2019-06-26T12:49:56.061Z,9.24
2019-06-26T12:54:32.928Z,7.44
2019-06-26T13:00:28.255Z,7.48
2019-06-26T13:05:14.059Z,8.91
2019-06-26T13:10:14.136Z,8.30
2019-06-26T13:15:14.543Z,10.05
2019-06-26T13:20:15.377Z,10.44
2019-06-26T13:25:16.386Z,9.74
2019-06-26T13:30:21.395Z,10.64
2019-06-26T13:35:16.939Z,8.37
2019-06-26T13:40:19.031Z,9.91
2019-06-26T13:45:18.116Z,27.41
2019-06-26T13:50:17.904Z,11.17
2019-06-26T13:55:19.272Z,9.06
2019-06-26T14:00:19.414Z,17.26
2019-06-26T14:05:19.296Z,11.18
2019-06-26T14:10:20.941Z,10.42
2019-06-26T14:15:20.724Z,7.60
2019-06-26T14:20:21.719Z,10.29
2019-06-26T14:25:22.377Z,8.84
2019-06-26T14:30:23.370Z,9.36
2019-06-26T14:35:23.141Z,9.30
2019-06-26T14:40:24.854Z,10.05
2019-06-26T14:45:24.685Z,10.01
2019-06-26T14:50:28.284Z,8.81
2019-06-26T14:55:25.962Z,11.53
2019-06-26T15:00:27.547Z,11.38
2019-06-26T15:05:27.495Z,9.27
2019-06-26T15:10:28.169Z,9.49
2019-06-26T15:15:29.139Z,8.86
2019-06-26T15:20:29.858Z,8.93
2019-06-26T15:25:30.656Z,16.12
2019-06-26T15:30:31.119Z,7.33
2019-06-26T15:35:31.610Z,7.87
2019-06-26T15:40:32.250Z,13.70
2019-06-26T15:45:35.446Z,7.98
2019-06-26T15:50:33.071Z,9.10
2019-06-26T15:55:34.032Z,8.50
2019-06-26T16:00:41.726Z,7.30
2019-06-26T16:05:37.375Z,8.15
2019-06-26T16:10:36.067Z,10.15
2019-06-26T16:15:36.808Z,8.76
2019-06-26T16:20:37.561Z,9.06
2019-06-26T16:25:38.325Z,7.94
2019-06-26T16:30:38.837Z,8.07
2019-06-26T16:35:39.312Z,8.45
2019-06-26T16:40:40.028Z,9.17
2019-06-26T16:45:40.650Z,8.56
2019-06-26T16:50:41.484Z,9.86
2019-06-26T16:55:42.134Z,8.29
2019-06-26T17:00:43.722Z,6.88
2019-06-26T17:05:43.838Z,9.25
2019-06-26T17:10:43.834Z,10.06
2019-06-26T17:15:44.853Z,9.75
2019-06-26T17:20:44.764Z,10.55
2019-06-26T17:25:46.182Z,8.01
2019-06-26T17:30:46.146Z,8.01
2019-06-26T17:35:49.513Z,8.25
2019-06-26T17:40:47.261Z,7.33
2019-06-26T17:45:48.059Z,6.76
2019-06-26T17:50:48.935Z,5.57
2019-06-26T17:55:49.629Z,5.09
2019-06-26T18:00:50.969Z,5.55
2019-06-26T18:05:52.836Z,5.67
2019-06-26T18:10:51.544Z,4.59
2019-06-26T18:15:52.366Z,3.88
2019-06-26T18:20:53.818Z,6.98
2019-06-26T18:25:54.451Z,5.69
2019-06-26T18:30:53.901Z,4.30
2019-06-26T18:35:55.748Z,5.34
2019-06-26T18:40:55.540Z,7.55
2019-06-26T18:45:56.645Z,6.11
2019-06-26T18:50:57.565Z,5.67
2019-06-26T18:55:58.253Z,6.28
2019-06-26T19:00:58.375Z,5.88
2019-06-26T19:05:58.414Z,6.46
2019-06-26T19:10:58.780Z,7.88
2019-06-26T19:16:04.427Z,7.80
2019-06-26T19:20:59.112Z,6.58
2019-06-26T19:26:00.505Z,6.14
2019-06-26T19:31:00.107Z,7.06
2019-06-26T19:35:59.878Z,5.03
2019-06-26T19:41:01.493Z,7.13
2019-06-26T19:46:06.517Z,7.97
2019-06-26T19:51:02.772Z,6.23
2019-06-26T19:56:02.680Z,8.39
2019-06-26T20:01:06.562Z,6.33
2019-06-26T20:06:05.212Z,6.69
2019-06-26T20:11:08.290Z,5.44
2019-06-26T20:16:07.103Z,7.15
2019-06-26T20:21:06.027Z,6.20
2019-06-26T20:26:06.840Z,4.24
2019-06-26T20:31:08.844Z,5.69
2019-06-26T20:36:07.859Z,6.31
2019-06-26T20:41:08.294Z,4.75
2019-06-26T20:46:10.557Z,6.09
2019-06-26T20:51:08.826Z,7.61
2019-06-26T20:56:12.067Z,5.68
2019-06-26T21:01:12.585Z,5.17
2019-06-26T21:06:14.987Z,6.29
2019-06-26T21:11:10.090Z,6.47
2019-06-26T21:16:10.214Z,7.99
2019-06-26T21:21:09.968Z,6.63
2019-06-26T21:26:14.587Z,6.36
2019-06-26T21:31:12.627Z,5.63
2019-06-26T21:36:11.300Z,6.85
2019-06-26T21:41:12.044Z,5.97
2019-06-26T21:46:12.815Z,6.54
2019-06-26T21:51:13.389Z,5.48
2019-06-26T21:56:13.915Z,6.50
2019-06-26T22:01:15.219Z,7.61
2019-06-26T22:06:14.909Z,7.82
2019-06-26T22:11:15.657Z,7.25
2019-06-26T22:16:16.183Z,8.76
2019-06-26T22:21:16.775Z,6.36
2019-06-26T22:26:18.394Z,6.90
2019-06-26T22:31:18.047Z,7.71
2019-06-26T22:36:18.523Z,6.94
2019-06-26T22:41:19.388Z,7.13
2019-06-26T22:46:20.024Z,6.48
2019-06-26T22:51:20.831Z,7.32
2019-06-26T22:56:21.405Z,7.64
2019-06-26T23:01:22.336Z,5.53
2019-06-26T23:06:22.875Z,6.82
2019-06-26T23:11:23.756Z,6.02
2019-06-26T23:16:24.293Z,7.45
2019-06-26T23:21:24.872Z,6.97
2019-06-26T23:26:25.490Z,7.35
2019-06-26T23:31:26.092Z,6.53
2019-06-26T23:36:26.633Z,5.14
2019-06-26T23:41:27.367Z,7.84
2019-06-26T23:46:27.889Z,6.03
2019-06-26T23:51:28.298Z,6.42
2019-06-26T23:56:39.967Z,9.55
